Time;durP1;ratioP1;P1;durP2;ratioP2;P2;SDS_P1;SDS_P2;PMS_P1;PMS_P2;Temp;Humidity;BMP_temperature;BMP_pressure;BME280_temperature;BME280_humidity;BME280_pressure;Samples;Min_cycle;Max_cycle;Signal;HPM_P1;HPM_P2
2024/01/18 00:01:16;;;;;;;15.07;13.10;;;-1.50;99.90;;;;;;5020346;28;20448;-53
2024/01/18 00:03:42;;;;;;;16.90;12.77;;;-1.50;99.90;;;;;;5028206;28;20511;-53
2024/01/18 00:06:09;;;;;;;18.07;14.40;;;-1.50;99.90;;;;;;5035135;28;21023;-53
2024/01/18 00:08:36;;;;;;;18.73;13.60;;;-1.60;99.90;;;;;;5032122;28;20487;-54
2024/01/18 00:11:02;;;;;;;18.23;13.23;;;-1.50;99.90;;;;;;5028741;28;20466;-53
2024/01/18 00:13:29;;;;;;;17.73;13.63;;;-1.60;99.90;;;;;;5031925;28;20449;-54
2024/01/18 00:15:57;;;;;;;18.40;14.10;;;-1.60;99.90;;;;;;5026719;28;20458;-53
2024/01/18 00:18:23;;;;;;;19.80;13.67;;;-1.60;99.90;;;;;;5029138;28;20459;-54
2024/01/18 00:20:50;;;;;;;17.53;13.60;;;-1.50;99.90;;;;;;5027199;28;20534;-53
2024/01/18 00:23:16;;;;;;;18.13;13.27;;;-1.50;99.90;;;;;;5031919;28;20446;-53
2024/01/18 00:25:43;;;;;;;17.97;13.23;;;-1.50;99.90;;;;;;5029875;28;20508;-54
2024/01/18 00:28:10;;;;;;;15.53;13.47;;;-1.40;99.90;;;;;;5028383;28;20486;-53
2024/01/18 00:30:38;;;;;;;15.07;12.40;;;-1.50;99.90;;;;;;5032455;28;20466;-53
2024/01/18 00:33:06;;;;;;;17.50;13.87;;;-1.40;99.90;;;;;;5029075;28;20463;-53
2024/01/18 00:35:33;;;;;;;31.90;21.03;;;-1.40;99.90;;;;;;5026503;28;20498;-53
2024/01/18 00:37:59;;;;;;;20.43;14.13;;;-1.50;99.90;;;;;;5022031;28;20513;-54
2024/01/18 00:40:26;;;;;;;23.07;18.00;;;-1.40;99.90;;;;;;5022333;28;20524;-54
2024/01/18 00:42:52;;;;;;;24.40;18.83;;;-1.40;99.90;;;;;;5020755;28;20467;-54
2024/01/18 00:45:19;;;;;;;18.27;13.90;;;-1.30;99.90;;;;;;5028862;28;20535;-54
2024/01/18 00:47:45;;;;;;;18.13;13.03;;;-1.30;99.90;;;;;;5021094;28;20491;-54
2024/01/18 00:50:13;;;;;;;14.90;11.37;;;-1.40;99.90;;;;;;5021124;28;20518;-54
2024/01/18 00:52:40;;;;;;;23.83;13.77;;;-1.30;99.90;;;;;;5022325;28;20512;-53
2024/01/18 00:55:07;;;;;;;15.60;12.57;;;-1.30;97.10;;;;;;5028797;28;20538;-52
2024/01/18 00:57:34;;;;;;;21.20;13.07;;;-1.30;99.90;;;;;;5024818;28;20972;-54
2024/01/18 01:00:00;;;;;;;15.10;12.50;;;-1.30;77.80;;;;;;5032508;28;20466;-54
2024/01/18 01:02:27;;;;;;;17.70;13.47;;;-1.30;89.00;;;;;;5039238;28;20435;-53
2024/01/18 01:04:54;;;;;;;18.47;13.23;;;-1.30;73.50;;;;;;5041539;28;20526;-53
2024/01/18 01:07:21;;;;;;;14.70;12.53;;;-1.30;91.70;;;;;;5041374;28;20459;-54
2024/01/18 01:09:48;;;;;;;16.03;12.07;;;-1.30;97.70;;;;;;5046578;28;20493;-54
2024/01/18 01:12:15;;;;;;;15.03;12.00;;;-1.30;78.30;;;;;;5027700;28;20545;-54
2024/01/18 01:14:41;;;;;;;17.57;12.70;;;-1.30;83.60;;;;;;5018375;28;20814;-56
2024/01/18 01:17:08;;;;;;;17.17;13.30;;;-1.30;79.70;;;;;;5021644;28;20893;-53
2024/01/18 01:19:34;;;;;;;19.70;13.83;;;-1.30;81.60;;;;;;5028913;28;20901;-53
2024/01/18 01:22:01;;;;;;;14.77;11.97;;;-1.30;85.40;;;;;;5027184;28;20866;-53
2024/01/18 01:24:29;;;;;;;15.90;13.30;;;-1.30;89.80;;;;;;5037309;28;20431;-53
2024/01/18 01:26:56;;;;;;;16.53;13.37;;;-1.30;26.20;;;;;;5022022;28;20463;-53
2024/01/18 01:29:23;;;;;;;17.03;12.13;;;-1.40;25.50;;;;;;5028340;28;20497;-54
2024/01/18 01:31:51;;;;;;;20.87;13.70;;;-1.40;22.80;;;;;;5024756;28;20866;-53
2024/01/18 01:34:18;;;;;;;17.00;13.60;;;-1.40;22.80;;;;;;5024779;28;20869;-52
2024/01/18 01:36:44;;;;;;;15.90;13.17;;;-1.40;71.70;;;;;;5034927;28;20467;-54
2024/01/18 01:39:11;;;;;;;18.77;14.50;;;-1.50;77.50;;;;;;5024020;28;20972;-53
2024/01/18 01:41:39;;;;;;;14.40;12.43;;;-1.50;91.10;;;;;;5021162;28;20843;-53
2024/01/18 01:44:06;;;;;;;14.10;12.30;;;-1.50;99.90;;;;;;5015251;28;20533;-53
2024/01/18 01:46:33;;;;;;;18.27;14.13;;;-1.50;99.90;;;;;;5022900;28;20471;-53
2024/01/18 01:49:01;;;;;;;16.30;13.33;;;-1.50;99.90;;;;;;5024091;28;20518;-53
2024/01/18 01:51:31;;;;;;;17.53;13.93;;;-1.50;99.90;;;;;;5016384;28;20942;-53
2024/01/18 01:53:58;;;;;;;16.63;13.17;;;-1.60;99.90;;;;;;5018787;28;20517;-54
2024/01/18 01:56:25;;;;;;;16.33;13.30;;;-1.50;99.90;;;;;;5030002;28;20447;-54
2024/01/18 01:58:53;;;;;;;16.73;12.93;;;-1.50;87.30;;;;;;5028664;28;20492;-53
2024/01/18 02:01:20;;;;;;;18.87;13.63;;;-1.50;99.90;;;;;;5017079;28;20517;-53
2024/01/18 02:03:47;;;;;;;17.73;13.93;;;-1.50;99.90;;;;;;5023308;28;20516;-53
2024/01/18 02:06:15;;;;;;;18.10;13.80;;;-1.50;99.90;;;;;;5018220;28;20941;-54
2024/01/18 02:08:42;;;;;;;19.83;14.67;;;-1.50;99.90;;;;;;5018460;28;20519;-52
2024/01/18 02:11:10;;;;;;;17.30;14.10;;;-1.50;99.90;;;;;;5022917;28;20934;-53
2024/01/18 02:13:38;;;;;;;17.30;13.33;;;-1.50;99.90;;;;;;5029499;28;20447;-53
2024/01/18 02:16:07;;;;;;;22.00;14.33;;;-1.40;99.90;;;;;;5022294;28;20493;-53
2024/01/18 02:18:35;;;;;;;21.10;13.83;;;-1.40;99.90;;;;;;5024400;28;20468;-54
2024/01/18 02:21:02;;;;;;;19.37;15.13;;;-1.40;99.90;;;;;;5022695;28;21043;-53
2024/01/18 02:23:30;;;;;;;21.67;15.00;;;-1.40;20.50;;;;;;5031637;28;20456;-53
2024/01/18 02:25:57;;;;;;;17.43;13.80;;;-1.40;93.90;;;;;;5016187;28;20491;-54
2024/01/18 02:28:24;;;;;;;20.60;14.50;;;-1.40;91.00;;;;;;5023735;28;20474;-54
2024/01/18 02:30:50;;;;;;;20.60;15.20;;;-1.50;25.70;;;;;;5026512;28;20941;-53
2024/01/18 02:33:17;;;;;;;24.33;14.63;;;-1.50;20.80;;;;;;5023625;28;20524;-53
2024/01/18 02:35:44;;;;;;;16.20;13.77;;;-1.50;20.20;;;;;;5028005;28;20458;-54
2024/01/18 02:38:11;;;;;;;18.40;13.10;;;-1.40;20.60;;;;;;5037755;28;20479;-54
2024/01/18 02:40:38;;;;;;;21.27;14.40;;;-1.40;21.20;;;;;;5030440;28;20459;-55
2024/01/18 02:43:06;;;;;;;16.47;13.50;;;-1.40;82.20;;;;;;5031018;28;20451;-53
2024/01/18 02:45:33;;;;;;;17.70;13.90;;;-1.40;91.70;;;;;;5029391;28;20464;-53
2024/01/18 02:47:59;;;;;;;18.80;14.47;;;-1.40;78.50;;;;;;5016135;28;20491;-54
2024/01/18 02:50:26;;;;;;;20.13;15.13;;;-1.40;74.10;;;;;;5012292;28;20483;-53
2024/01/18 02:52:52;;;;;;;22.53;16.47;;;-1.40;22.30;;;;;;5027716;28;20475;-53
2024/01/18 02:55:19;;;;;;;20.87;14.63;;;-1.50;33.40;;;;;;5018244;28;20537;-54
2024/01/18 02:57:46;;;;;;;19.93;14.23;;;-1.50;28.80;;;;;;4990362;28;979769;-54
2024/01/18 03:00:15;;;;;;;16.80;14.57;;;-1.40;22.00;;;;;;5022093;28;20444;-53
2024/01/18 03:02:41;;;;;;;19.13;14.50;;;-1.40;26.10;;;;;;5040784;28;20501;-53
2024/01/18 03:05:08;;;;;;;20.47;14.93;;;-1.40;29.30;;;;;;5021920;28;21015;-53
2024/01/18 03:07:35;;;;;;;18.03;15.67;;;-1.40;33.20;;;;;;5021088;28;20519;-52
2024/01/18 03:10:01;;;;;;;19.93;15.77;;;-1.40;32.50;;;;;;5031416;28;20518;-53
2024/01/18 03:12:28;;;;;;;20.17;15.93;;;-1.40;35.50;;;;;;5024981;28;20458;-52
2024/01/18 03:14:55;;;;;;;20.40;14.70;;;-1.50;28.90;;;;;;5028393;28;20463;-52
2024/01/18 03:17:22;;;;;;;20.93;16.37;;;-1.60;28.70;;;;;;5030359;28;20901;-53
2024/01/18 03:19:49;;;;;;;20.73;16.13;;;-1.60;26.60;;;;;;5032834;28;21003;-52
2024/01/18 03:22:16;;;;;;;22.60;16.03;;;-1.60;22.30;;;;;;5023741;28;20442;-51
2024/01/18 03:24:42;;;;;;;21.70;16.13;;;-1.60;83.40;;;;;;5030767;28;20517;-54
2024/01/18 03:27:09;;;;;;;22.30;15.17;;;-1.70;20.60;;;;;;5016601;28;20840;-53
2024/01/18 03:29:35;;;;;;;21.73;16.93;;;-1.70;76.50;;;;;;5025059;28;20508;-53
2024/01/18 03:32:02;;;;;;;23.97;16.77;;;-1.70;99.90;;;;;;5031993;28;20446;-52
2024/01/18 03:34:30;;;;;;;18.60;15.60;;;-1.70;99.90;;;;;;5020487;28;20879;-53
2024/01/18 03:36:56;;;;;;;19.60;16.13;;;-1.80;99.90;;;;;;5029549;28;22584;-53
2024/01/18 03:39:23;;;;;;;21.00;16.20;;;-1.80;99.90;;;;;;5030810;28;20444;-53
2024/01/18 03:41:49;;;;;;;22.37;16.13;;;-1.80;99.90;;;;;;5030128;28;20503;-53
2024/01/18 03:44:16;;;;;;;18.53;14.90;;;-1.80;99.90;;;;;;5015525;28;20867;-53
2024/01/18 03:46:43;;;;;;;20.07;16.17;;;-1.80;99.90;;;;;;5034767;28;20449;-53
2024/01/18 03:49:09;;;;;;;21.87;16.63;;;-1.80;99.90;;;;;;5031873;28;20480;-52
2024/01/18 03:51:37;;;;;;;18.30;14.87;;;-1.80;99.90;;;;;;5028937;28;20850;-53
2024/01/18 03:54:04;;;;;;;21.13;17.07;;;-1.80;99.90;;;;;;5035276;28;20537;-53
2024/01/18 03:56:30;;;;;;;21.97;16.47;;;-1.80;99.90;;;;;;5034990;28;20508;-53
2024/01/18 03:58:57;;;;;;;18.17;16.07;;;-1.90;99.90;;;;;;5036265;28;20909;-53
2024/01/18 04:01:23;;;;;;;22.13;15.57;;;-1.90;99.90;;;;;;5033616;28;20530;-53
2024/01/18 04:03:50;;;;;;;20.87;17.00;;;-1.90;99.90;;;;;;5038058;28;20463;-55
2024/01/18 04:06:16;;;;;;;21.43;16.10;;;-1.90;99.90;;;;;;5030361;28;20463;-53
2024/01/18 04:08:44;;;;;;;20.87;16.77;;;-1.90;99.90;;;;;;5034788;28;20570;-53
2024/01/18 04:11:11;;;;;;;20.03;16.80;;;-1.90;99.90;;;;;;5021965;28;20567;-54
2024/01/18 04:13:38;;;;;;;21.47;17.30;;;-1.90;99.90;;;;;;5025328;28;20462;-53
2024/01/18 04:16:05;;;;;;;21.83;16.77;;;-1.90;99.90;;;;;;5035245;28;20461;-53
2024/01/18 04:18:31;;;;;;;21.97;17.80;;;-1.90;99.90;;;;;;5037138;28;20499;-52
2024/01/18 04:20:58;;;;;;;23.70;17.60;;;-1.90;99.90;;;;;;5051229;28;20466;-52
2024/01/18 04:23:24;;;;;;;20.70;15.70;;;-1.90;99.90;;;;;;5054328;28;20484;-53
2024/01/18 04:25:53;;;;;;;20.50;16.03;;;-2.00;99.90;;;;;;5062643;28;20462;-58
2024/01/18 04:28:20;;;;;;;21.73;16.10;;;-2.00;99.90;;;;;;5057502;28;20593;-54
2024/01/18 04:30:47;;;;;;;24.13;17.73;;;-1.90;99.90;;;;;;5059105;28;20489;-52
2024/01/18 04:33:13;;;;;;;21.47;16.03;;;-2.00;99.90;;;;;;5030382;28;20525;-54
2024/01/18 04:35:40;;;;;;;21.17;15.47;;;-2.00;99.90;;;;;;5028894;28;20989;-52
2024/01/18 04:38:07;;;;;;;22.90;15.93;;;-2.10;99.90;;;;;;5021395;28;20930;-53
2024/01/18 04:40:34;;;;;;;22.73;16.37;;;-2.00;99.90;;;;;;5039606;28;20442;-52
2024/01/18 04:43:02;;;;;;;22.47;16.40;;;-2.00;99.90;;;;;;5029095;28;20524;-54
2024/01/18 04:45:28;;;;;;;23.47;17.07;;;-2.10;99.90;;;;;;5023207;28;20459;-52
2024/01/18 04:47:56;;;;;;;19.10;15.43;;;-2.10;99.90;;;;;;5034868;28;20508;-53
2024/01/18 04:50:24;;;;;;;20.13;15.90;;;-2.10;99.90;;;;;;5019658;28;21040;-52
2024/01/18 04:52:51;;;;;;;19.53;16.23;;;-2.10;99.90;;;;;;5026914;28;20447;-53
2024/01/18 04:55:17;;;;;;;18.67;15.20;;;-2.10;99.90;;;;;;5031118;28;20455;-53
2024/01/18 04:57:44;;;;;;;17.77;15.30;;;-2.10;99.90;;;;;;5033318;28;20494;-54
2024/01/18 05:00:13;;;;;;;27.73;17.93;;;-2.10;99.90;;;;;;5021380;28;20490;-51
2024/01/18 05:02:41;;;;;;;24.70;17.70;;;-2.20;99.90;;;;;;5026053;28;20443;-53
2024/01/18 05:05:09;;;;;;;23.43;16.57;;;-2.20;99.90;;;;;;5035943;28;20477;-54
2024/01/18 05:07:35;;;;;;;22.93;18.40;;;-2.20;99.90;;;;;;5028187;28;20477;-52
2024/01/18 05:10:04;;;;;;;21.40;17.07;;;-2.20;99.90;;;;;;5023452;28;20578;-54
2024/01/18 05:12:30;;;;;;;23.83;17.50;;;-2.30;99.90;;;;;;5030622;28;21837;-52
2024/01/18 05:14:57;;;;;;;24.13;17.53;;;-2.30;99.90;;;;;;5029905;28;20490;-52
2024/01/18 05:17:34;;;;;;;21.30;17.03;;;-2.30;99.90;;;;;;5020733;28;20477;-53
2024/01/18 05:20:01;;;;;;;20.37;16.77;;;-2.30;99.90;;;;;;5025394;28;20932;-52
2024/01/18 05:22:27;;;;;;;22.30;17.60;;;-2.30;99.90;;;;;;5020391;28;20520;-53
2024/01/18 05:24:54;;;;;;;22.03;18.00;;;-2.30;99.90;;;;;;5025128;28;20459;-52
2024/01/18 05:27:20;;;;;;;23.30;16.27;;;-2.30;99.90;;;;;;5025733;28;20509;-53
2024/01/18 05:29:47;;;;;;;21.80;17.50;;;-2.30;99.90;;;;;;5014523;28;20588;-52
2024/01/18 05:32:14;;;;;;;23.57;17.10;;;-2.30;99.90;;;;;;5030541;28;20443;-52
2024/01/18 05:34:42;;;;;;;24.33;18.60;;;-2.30;99.90;;;;;;5024522;28;20432;-53
2024/01/18 05:37:08;;;;;;;19.67;17.00;;;-2.40;99.90;;;;;;5026855;28;20461;-53
2024/01/18 05:39:35;;;;;;;21.50;16.40;;;-2.50;99.90;;;;;;5028176;28;20440;-53
2024/01/18 05:42:02;;;;;;;23.83;17.30;;;-2.50;99.90;;;;;;5029577;28;20984;-53
2024/01/18 05:44:28;;;;;;;22.57;17.20;;;-2.50;99.90;;;;;;5024944;28;20444;-53
2024/01/18 05:46:55;;;;;;;22.00;17.77;;;-2.50;99.90;;;;;;5042604;28;20465;-53
2024/01/18 05:49:22;;;;;;;20.67;17.17;;;-2.50;99.90;;;;;;5038975;28;20855;-53
2024/01/18 05:51:50;;;;;;;23.03;17.80;;;-2.50;99.90;;;;;;5037352;28;20492;-53
2024/01/18 05:54:16;;;;;;;19.77;17.43;;;-2.60;99.90;;;;;;5046942;28;20472;-53
2024/01/18 05:56:46;;;;;;;23.37;18.17;;;-2.60;99.90;;;;;;5040156;28;20459;-53
2024/01/18 05:59:12;;;;;;;22.13;17.77;;;-2.60;99.90;;;;;;5026880;28;20478;-52
2024/01/18 06:01:39;;;;;;;23.87;17.80;;;-2.70;99.90;;;;;;5026066;28;20449;-52
2024/01/18 06:04:06;;;;;;;21.07;16.97;;;-2.60;99.90;;;;;;5027973;28;20803;-51
2024/01/18 06:06:33;;;;;;;25.73;19.20;;;-2.70;99.90;;;;;;5033070;28;20479;-52
2024/01/18 06:09:01;;;;;;;18.97;16.70;;;-2.70;99.90;;;;;;5024341;28;20482;-51
2024/01/18 06:11:27;;;;;;;24.63;18.57;;;-2.70;99.90;;;;;;5023976;28;21008;-53
2024/01/18 06:13:54;;;;;;;27.73;22.53;;;-2.70;99.90;;;;;;5030209;28;20435;-52
2024/01/18 06:16:20;;;;;;;32.40;24.30;;;-2.70;99.90;;;;;;5022277;28;20471;-51
2024/01/18 06:18:47;;;;;;;30.00;23.67;;;-2.60;99.90;;;;;;5021467;28;21042;-52
2024/01/18 06:21:13;;;;;;;33.60;20.33;;;-2.60;99.90;;;;;;5017013;28;20823;-53
2024/01/18 06:23:40;;;;;;;22.70;17.73;;;-2.60;99.90;;;;;;5022021;28;20442;-52
2024/01/18 06:26:11;;;;;;;23.27;18.60;;;-2.60;99.90;;;;;;5033089;28;20469;-51
2024/01/18 06:28:38;;;;;;;29.33;19.70;;;-2.60;99.90;;;;;;5020351;28;20474;-54
2024/01/18 06:31:05;;;;;;;20.73;17.40;;;-2.60;99.90;;;;;;5018197;28;20860;-52
2024/01/18 06:33:32;;;;;;;25.13;18.00;;;-2.60;99.90;;;;;;5026884;28;20949;-53
2024/01/18 06:35:58;;;;;;;25.83;18.80;;;-2.60;99.90;;;;;;5031962;28;20437;-52
2024/01/18 06:38:25;;;;;;;23.20;17.73;;;-2.60;99.90;;;;;;5025767;28;20462;-52
2024/01/18 06:40:52;;;;;;;25.80;19.40;;;-2.60;99.90;;;;;;5020791;28;20443;-52
2024/01/18 06:43:20;;;;;;;26.30;19.03;;;-2.60;99.90;;;;;;5027808;28;20459;-52
2024/01/18 06:45:50;;;;;;;22.70;18.23;;;-2.70;99.90;;;;;;5029352;28;20502;-52
2024/01/18 06:48:17;;;;;;;26.43;19.10;;;-2.70;99.90;;;;;;5022753;28;21084;-52
2024/01/18 06:50:44;;;;;;;26.43;17.90;;;-2.70;99.90;;;;;;5026705;28;20501;-52
2024/01/18 06:53:11;;;;;;;24.93;18.70;;;-2.80;99.90;;;;;;5021221;28;20462;-54
2024/01/18 06:55:37;;;;;;;23.27;18.17;;;-2.80;99.90;;;;;;5018652;28;20520;-52
2024/01/18 06:58:04;;;;;;;22.70;17.67;;;-2.80;99.90;;;;;;5023307;28;20524;-52
2024/01/18 07:00:32;;;;;;;24.07;19.27;;;-2.90;99.90;;;;;;5032954;28;20470;-54
2024/01/18 07:02:59;;;;;;;25.20;18.00;;;-2.90;99.90;;;;;;5040279;28;20462;-58
2024/01/18 07:05:25;;;;;;;22.10;18.47;;;-3.00;99.90;;;;;;5046090;28;21022;-52
2024/01/18 07:07:52;;;;;;;23.10;18.50;;;-3.00;99.90;;;;;;5042927;28;20550;-52
2024/01/18 07:10:20;;;;;;;23.40;17.97;;;-3.00;99.90;;;;;;5034855;28;20858;-54
2024/01/18 07:12:47;;;;;;;21.30;17.93;;;-3.00;99.90;;;;;;5042461;28;20488;-54
2024/01/18 07:15:14;;;;;;;23.07;18.47;;;-3.00;99.90;;;;;;5032868;28;20497;-53
2024/01/18 07:17:41;;;;;;;25.73;20.57;;;-3.10;99.90;;;;;;5020762;28;20498;-52
2024/01/18 07:20:09;;;;;;;27.80;21.17;;;-3.00;99.90;;;;;;5022718;28;20459;-52
2024/01/18 07:22:35;;;;;;;29.27;19.93;;;-2.90;99.90;;;;;;5028848;28;20991;-52
2024/01/18 07:25:03;;;;;;;28.10;20.60;;;-2.90;99.90;;;;;;5034786;28;20466;-53
2024/01/18 07:27:30;;;;;;;26.33;19.43;;;-2.80;99.90;;;;;;5024382;28;20482;-52
2024/01/18 07:29:57;;;;;;;27.03;20.40;;;-2.80;99.90;;;;;;5033295;28;20879;-52
2024/01/18 07:32:24;;;;;;;28.13;21.77;;;-2.70;99.90;;;;;;5035316;28;21180;-54
2024/01/18 07:34:52;;;;;;;24.97;19.30;;;-2.70;99.90;;;;;;5024825;28;20466;-53
2024/01/18 07:37:18;;;;;;;26.87;21.30;;;-2.70;99.90;;;;;;5039027;28;20487;-53
2024/01/18 07:39:45;;;;;;;27.20;20.43;;;-2.70;99.90;;;;;;5035252;28;20457;-52
2024/01/18 07:42:12;;;;;;;26.77;19.63;;;-2.70;99.90;;;;;;5040493;28;20513;-54
2024/01/18 07:44:40;;;;;;;23.83;19.50;;;-2.70;99.90;;;;;;5041279;28;20467;-53
2024/01/18 07:47:09;;;;;;;29.90;22.10;;;-2.70;99.90;;;;;;5032139;28;20501;-53
2024/01/18 07:49:36;;;;;;;34.17;20.73;;;-2.60;99.90;;;;;;5033970;28;20464;-55
2024/01/18 07:52:05;;;;;;;26.70;20.00;;;-2.60;99.90;;;;;;5022042;28;20567;-52
2024/01/18 07:54:32;;;;;;;27.37;21.43;;;-2.50;99.90;;;;;;5033055;28;20458;-52
2024/01/18 07:56:58;;;;;;;27.20;21.93;;;-2.40;99.90;;;;;;5028942;28;20493;-53
2024/01/18 07:59:25;;;;;;;32.40;22.10;;;-2.40;99.90;;;;;;5034444;28;21014;-54
2024/01/18 08:01:51;;;;;;;28.03;19.50;;;-2.30;99.90;;;;;;5036246;28;20817;-54
2024/01/18 08:04:18;;;;;;;28.33;19.80;;;-2.20;99.90;;;;;;5034496;28;20512;-52
2024/01/18 08:06:44;;;;;;;23.67;19.20;;;-2.20;99.90;;;;;;5031322;28;20503;-52
2024/01/18 08:09:13;;;;;;;28.27;19.60;;;-2.20;99.90;;;;;;5025343;28;20555;-52
2024/01/18 08:11:40;;;;;;;28.17;20.00;;;-2.10;99.90;;;;;;5031209;28;20505;-52
2024/01/18 08:14:07;;;;;;;25.60;20.33;;;-2.30;99.90;;;;;;5020883;28;21047;-52
2024/01/18 08:16:33;;;;;;;25.60;20.20;;;-2.20;99.90;;;;;;5034436;28;20488;-53
2024/01/18 08:19:00;;;;;;;25.77;19.20;;;-2.10;99.90;;;;;;5032339;28;20850;-53
2024/01/18 08:21:27;;;;;;;23.13;19.33;;;-2.10;99.90;;;;;;5030551;28;20459;-52
2024/01/18 08:23:53;;;;;;;24.33;19.40;;;-2.00;99.90;;;;;;5034807;28;20592;-54
2024/01/18 08:26:21;;;;;;;27.27;20.27;;;-1.90;99.90;;;;;;5025706;28;20463;-53
2024/01/18 08:28:48;;;;;;;30.53;20.80;;;-1.90;73.60;;;;;;5030505;28;20474;-53
2024/01/18 08:31:15;;;;;;;27.57;18.70;;;-1.90;79.70;;;;;;5032688;28;20518;-53
2024/01/18 08:33:41;;;;;;;23.83;20.53;;;-1.90;24.50;;;;;;5029527;28;20457;-53
2024/01/18 08:36:09;;;;;;;27.33;20.60;;;-1.80;25.00;;;;;;5027234;28;20462;-53
2024/01/18 08:38:35;;;;;;;25.27;20.07;;;-1.80;28.20;;;;;;5037880;28;20454;-53
2024/01/18 08:41:02;;;;;;;21.50;18.57;;;-1.80;30.40;;;;;;5036239;28;20451;-52
2024/01/18 08:43:31;;;;;;;25.77;20.73;;;-1.80;26.70;;;;;;5033346;28;20516;-53
2024/01/18 08:45:59;;;;;;;29.77;20.70;;;-1.70;26.20;;;;;;5030609;28;21069;-53
2024/01/18 08:48:25;;;;;;;25.30;19.67;;;-1.70;33.00;;;;;;5036109;28;20472;-53
2024/01/18 08:50:52;;;;;;;26.40;19.90;;;-1.70;32.40;;;;;;5028506;28;20479;-52
2024/01/18 08:53:19;;;;;;;25.83;19.13;;;-1.80;36.80;;;;;;5028444;28;20463;-53
2024/01/18 08:55:45;;;;;;;23.90;18.10;;;-1.60;26.40;;;;;;5035398;28;20524;-53
2024/01/18 08:58:12;;;;;;;24.17;19.60;;;-1.60;30.40;;;;;;5033150;28;20855;-56
2024/01/18 09:00:40;;;;;;;24.63;19.57;;;-1.50;25.40;;;;;;5037073;28;20474;-56
2024/01/18 09:03:06;;;;;;;21.97;18.80;;;-1.40;28.60;;;;;;5030048;28;20458;-56
2024/01/18 09:05:33;;;;;;;28.77;21.50;;;-1.40;32.30;;;;;;5044877;28;20490;-56
2024/01/18 09:08:00;;;;;;;28.33;19.57;;;-1.50;33.10;;;;;;5044998;28;20475;-55
2024/01/18 09:10:27;;;;;;;24.93;20.27;;;-1.40;31.00;;;;;;5044620;28;20485;-56
2024/01/18 09:12:54;;;;;;;25.77;20.30;;;-1.40;35.60;;;;;;5051244;28;20509;-55
2024/01/18 09:15:20;;;;;;;31.73;21.03;;;-1.30;32.10;;;;;;5037747;28;20510;-56
2024/01/18 09:17:48;;;;;;;25.03;19.27;;;-1.30;37.70;;;;;;5033712;28;20478;-57
2024/01/18 09:20:15;;;;;;;25.67;21.33;;;-1.50;41.90;;;;;;5027179;28;20907;-56
2024/01/18 09:22:41;;;;;;;25.10;20.60;;;-1.50;36.00;;;;;;5034960;28;20519;-56
2024/01/18 09:25:08;;;;;;;28.00;21.50;;;-1.30;33.50;;;;;;5036790;28;20555;-56
2024/01/18 09:27:35;;;;;;;25.60;20.43;;;-1.40;36.10;;;;;;5031860;28;20479;-56
2024/01/18 09:30:02;;;;;;;29.10;20.87;;;-1.40;32.90;;;;;;5035953;28;20454;-56
2024/01/18 09:32:28;;;;;;;28.33;19.17;;;-1.40;33.30;;;;;;5035658;28;21007;-56
2024/01/18 09:34:57;;;;;;;26.00;20.20;;;-1.40;38.00;;;;;;5022630;28;20467;-55
2024/01/18 09:37:24;;;;;;;28.80;20.00;;;-1.30;32.00;;;;;;5031339;28;20565;-56
2024/01/18 09:39:50;;;;;;;28.33;19.60;;;-1.20;35.80;;;;;;5027455;28;20858;-57
2024/01/18 09:42:18;;;;;;;28.43;18.93;;;-1.20;40.30;;;;;;5033108;28;20470;-55
2024/01/18 09:44:47;;;;;;;25.37;20.50;;;-1.20;46.00;;;;;;5026403;28;20489;-56
2024/01/18 09:47:15;;;;;;;26.50;20.80;;;-1.20;42.30;;;;;;5026576;28;20883;-56
2024/01/18 09:49:43;;;;;;;25.37;20.03;;;-1.10;39.10;;;;;;5036077;28;20480;-56
2024/01/18 09:52:12;;;;;;;27.07;19.20;;;-1.10;43.80;;;;;;5029852;28;21056;-57
2024/01/18 09:54:39;;;;;;;24.53;19.80;;;-1.10;42.30;;;;;;5028549;28;20884;-57
2024/01/18 09:57:08;;;;;;;28.23;20.77;;;-1.10;43.50;;;;;;5036255;28;20533;-56
2024/01/18 09:59:36;;;;;;;26.90;19.83;;;-1.10;42.30;;;;;;5030733;28;20844;-56
2024/01/18 10:02:03;;;;;;;26.27;21.40;;;-1.00;38.80;;;;;;5025479;28;20451;-58
2024/01/18 10:04:31;;;;;;;24.00;20.20;;;-1.00;42.30;;;;;;5032623;28;20535;-56
2024/01/18 10:06:58;;;;;;;26.80;20.40;;;-1.00;44.50;;;;;;5032047;28;20457;-59
2024/01/18 10:09:26;;;;;;;29.73;21.47;;;-0.90;42.30;;;;;;5031736;28;20462;-56
2024/01/18 10:11:53;;;;;;;24.63;19.87;;;-0.90;44.50;;;;;;5024577;28;20511;-56
2024/01/18 10:14:40;;;;;;;24.13;19.60;;;-0.80;47.20;;;;;;5018986;28;20451;-56
2024/01/18 10:17:07;;;;;;;27.10;20.37;;;-0.90;51.20;;;;;;5024543;28;20458;-56
2024/01/18 10:19:34;;;;;;;25.60;21.23;;;-0.80;46.50;;;;;;5030044;28;20957;-56
2024/01/18 10:22:01;;;;;;;22.70;19.50;;;-0.80;45.10;;;;;;5031336;28;20463;-56
2024/01/18 10:24:29;;;;;;;29.70;20.83;;;-0.80;46.90;;;;;;5024633;28;20480;-56
2024/01/18 10:27:03;;;;;;;29.53;20.70;;;-0.80;45.90;;;;;;5028698;28;20520;-56
2024/01/18 10:29:35;;;;;;;26.73;19.70;;;-0.90;49.80;;;;;;5027479;28;20454;-56
2024/01/18 10:32:02;;;;;;;28.70;21.20;;;-0.80;43.40;;;;;;5023682;28;20475;-58
2024/01/18 10:34:29;;;;;;;24.93;20.97;;;-0.80;45.50;;;;;;5032688;28;20896;-56
2024/01/18 10:36:55;;;;;;;35.30;22.00;;;-0.70;47.60;;;;;;5028910;28;20462;-56
2024/01/18 10:39:22;;;;;;;30.60;21.10;;;-0.70;50.60;;;;;;5029773;28;20458;-56
2024/01/18 10:41:50;;;;;;;24.80;20.93;;;-0.70;50.30;;;;;;5028999;28;20455;-56
2024/01/18 10:44:17;;;;;;;27.00;20.93;;;-0.70;52.10;;;;;;5036991;28;20463;-58
2024/01/18 10:46:44;;;;;;;23.07;19.03;;;-0.80;51.30;;;;;;5027086;28;20458;-56
2024/01/18 10:49:11;;;;;;;24.77;19.70;;;-0.90;54.80;;;;;;5023146;28;20487;-56
2024/01/18 10:51:39;;;;;;;23.10;19.60;;;-1.00;49.90;;;;;;5033333;28;20930;-58
2024/01/18 10:54:08;;;;;;;29.70;21.30;;;-1.10;43.50;;;;;;5034837;28;20472;-56
2024/01/18 10:56:36;;;;;;;26.30;21.90;;;-0.90;41.60;;;;;;5029334;28;20493;-56
2024/01/18 10:59:06;;;;;;;24.43;19.87;;;-1.00;43.60;;;;;;5028934;28;20581;-56
2024/01/18 11:01:34;;;;;;;30.57;23.60;;;-0.90;49.20;;;;;;5028967;28;20455;-56
2024/01/18 11:04:01;;;;;;;30.00;23.40;;;-1.10;47.00;;;;;;5036484;28;20986;-57
2024/01/18 11:06:28;;;;;;;30.83;25.10;;;-1.00;48.20;;;;;;5030336;28;20528;-55
2024/01/18 11:08:57;;;;;;;28.57;22.10;;;-0.90;46.10;;;;;;5032749;28;20478;-56
2024/01/18 11:11:24;;;;;;;29.40;21.67;;;-1.00;51.90;;;;;;5030353;28;20466;-56
2024/01/18 11:13:51;;;;;;;27.43;22.67;;;-1.00;55.10;;;;;;5033082;28;20489;-57
2024/01/18 11:16:19;;;;;;;26.63;21.20;;;-1.10;49.90;;;;;;5031648;28;20549;-57
2024/01/18 11:18:50;;;;;;;28.07;22.20;;;-1.20;50.00;;;;;;5035559;28;20851;-56
2024/01/18 11:21:17;;;;;;;28.80;21.70;;;-1.30;46.50;;;;;;5024199;28;20463;-56
2024/01/18 11:23:44;;;;;;;29.77;23.53;;;-1.30;42.50;;;;;;5038091;28;20474;-57
2024/01/18 11:26:19;;;;;;;28.57;23.60;;;-1.30;39.60;;;;;;5025709;28;20992;-56
2024/01/18 11:28:46;;;;;;;33.43;23.43;;;-1.20;37.30;;;;;;5033408;28;20911;-56
2024/01/18 11:31:13;;;;;;;29.63;24.67;;;-0.40;54.20;;;;;;5025907;28;20491;-56
2024/01/18 11:33:41;;;;;;;30.90;22.07;;;-0.60;74.60;;;;;;5025361;28;20497;-56
2024/01/18 11:36:09;;;;;;;29.27;21.80;;;-0.50;69.40;;;;;;5025588;28;20960;-56
2024/01/18 11:38:45;;;;;;;25.70;22.57;;;-0.60;69.10;;;;;;5025675;28;20497;-56
2024/01/18 11:41:21;;;;;;;34.53;24.17;;;0.40;80.40;;;;;;5027649;28;20470;-56
2024/01/18 11:43:55;;;;;;;30.93;23.60;;;0.60;95.60;;;;;;5029732;28;20489;-56
2024/01/18 11:46:35;;;;;;;25.13;20.37;;;0.20;99.00;;;;;;5028425;28;20459;-56
2024/01/18 11:49:03;;;;;;;29.57;22.50;;;0.00;96.00;;;;;;5027064;28;21196;-57
2024/01/18 11:51:30;;;;;;;27.37;21.97;;;-0.20;90.60;;;;;;5025505;28;20466;-57
2024/01/18 11:53:59;;;;;;;29.07;22.33;;;-0.20;85.50;;;;;;5027049;28;20463;-57
2024/01/18 11:56:27;;;;;;;36.97;23.90;;;-0.30;76.40;;;;;;5029080;28;20467;-57
2024/01/18 11:58:55;;;;;;;34.33;24.10;;;-0.30;79.80;;;;;;5023253;28;21307;-56
2024/01/18 12:01:22;;;;;;;30.57;23.90;;;-0.20;77.20;;;;;;5027139;28;21228;-57
2024/01/18 12:03:49;;;;;;;30.50;21.53;;;0.10;77.90;;;;;;5028419;28;20984;-57
2024/01/18 12:06:18;;;;;;;29.60;22.90;;;0.00;85.60;;;;;;5026806;28;20498;-56
2024/01/18 12:08:46;;;;;;;29.43;22.80;;;0.00;86.60;;;;;;5028145;28;20544;-56
2024/01/18 12:11:14;;;;;;;31.70;23.30;;;0.00;88.20;;;;;;5022882;28;20900;-56
2024/01/18 12:13:40;;;;;;;29.17;22.57;;;0.10;88.10;;;;;;5024388;28;20517;-57
2024/01/18 12:16:08;;;;;;;27.60;20.83;;;0.30;89.00;;;;;;5027065;28;20887;-57
2024/01/18 12:18:39;;;;;;;28.00;22.37;;;0.30;96.90;;;;;;5033874;28;20479;-56
2024/01/18 12:21:06;;;;;;;28.77;21.63;;;0.80;99.90;;;;;;5025756;28;20459;-57
2024/01/18 12:23:34;;;;;;;30.60;21.53;;;2.10;99.90;;;;;;5043310;28;20466;-56
2024/01/18 12:26:01;;;;;;;28.37;20.73;;;2.00;99.90;;;;;;5034374;28;20460;-57
2024/01/18 12:28:28;;;;;;;29.93;22.17;;;2.70;99.90;;;;;;5041651;28;20489;-57